Spirit — DJ6644 — position and weather

sailwx.info

Track history (hours):
 
Tides and Currents Weather Stations Pressure Air Temp Water Temp Dewpoint Dewpoint Depression Visibility Wind Speed Wind Dir Waves Ship Positions

Spirit

Last reported at 2018-Jan-03 11:33 UTC. Time now 2018-Jan-21 08:49 UTC.
Position N 28°04' W 015°24'.
Warning: this ship's position is 17 days out of date.

Length 14 m.

Type: Sailing vessel. MMSI: 211645240.

Date/timePositionNaut miles runAvg speedWind from/ knotsBaromVisibWave heightAir tempDewpointWater temp
2018-Jan-03 11:33N 28°04' W 015°24'1 6.2
2018-Jan-03 11:25N 28°05' W 015°24'3 5.4
2018-Jan-03 10:56N 28°08' W 015°26'0 0.0
2018-Jan-02 11:46N 28°08' W 015°25'0 0.0
2018-Jan-01 19:30N 28°08' W 015°25'0 0.5
2018-Jan-01 19:00N 28°08' W 015°25'2 3.9
2018-Jan-01 18:30N 28°09' W 015°24'3 5.3
2018-Jan-01 17:54N 28°12' W 015°26'2 6.2
2018-Jan-01 17:30N 28°13' W 015°28'39 6.2
2018-Jan-01 11:12N 28°25' W 016°10'1 6.0
2018-Jan-01 11:00N 28°26' W 016°11'3 5.9
2018-Jan-01 10:30N 28°27' W 016°14'1 2.0
2018-Jan-01 09:55N 28°28' W 016°15'0 0.0
2017-Dec-31 04:09N 28°28' W 016°15'0 0.3
2017-Dec-31 04:00N 28°28' W 016°15'1 1.3
2017-Dec-31 03:30N 28°28' W 016°14'  
Track history (hours):
 
Tides and Currents Weather Stations Pressure Air Temp Water Temp Dewpoint Dewpoint Depression Visibility Wind Speed Wind Dir Waves Ship Positions

Spirit

Last reported at 2018-Jan-03 11:33 UTC. Time now 2018-Jan-21 08:49 UTC.
Position N 28°04' W 015°24'.
Warning: this ship's position is 17 days out of date.

Length 14 m.

Type: Sailing vessel. MMSI: 211645240.

Date/timePositionNaut miles runAvg speedWind from/ knotsBaromVisibWave heightAir tempDewpointWater temp
2018-Jan-03 11:33N 28°04' W 015°24'1 6.2
2018-Jan-03 11:25N 28°05' W 015°24'3 5.4
2018-Jan-03 10:56N 28°08' W 015°26'0 0.0
2018-Jan-02 11:46N 28°08' W 015°25'0 0.0
2018-Jan-01 19:30N 28°08' W 015°25'0 0.5
2018-Jan-01 19:00N 28°08' W 015°25'2 3.9
2018-Jan-01 18:30N 28°09' W 015°24'3 5.3
2018-Jan-01 17:54N 28°12' W 015°26'2 6.2
2018-Jan-01 17:30N 28°13' W 015°28'39 6.2
2018-Jan-01 11:12N 28°25' W 016°10'1 6.0
2018-Jan-01 11:00N 28°26' W 016°11'3 5.9
2018-Jan-01 10:30N 28°27' W 016°14'1 2.0
2018-Jan-01 09:55N 28°28' W 016°15'0 0.0
2017-Dec-31 04:09N 28°28' W 016°15'0 0.3
2017-Dec-31 04:00N 28°28' W 016°15'1 1.3
2017-Dec-31 03:30N 28°28' W 016°14'  

Dump ship's entire track history